Informes METAR cercanos


LEVC - Manises, Valencia, ESPAÑA
Distance from station: NNE 72km
Actualización: 23/09/2021 06:30
Parcialmente nuboso
Parcialmente nuboso
 Viento del varies
Viento: varies 4 km/h
Temperatura: 19°C
Rocío: 19°C
Humedad: 100%
Barómetro: 1017 hPa
Clouds: Parcialmente nuboso
Visibility: 10 km
Cloud details: Algunas nubes 914 m
Parcialmente nuboso 1219 m
2021/09/23 04:30 LEVC 230430Z VRB02KT 9999 FEW030 SCT040 19/19 Q1017 NOSIG
LEAL - El Altet, Alicante, ESPAÑA
Distance from station: S 70km
Actualización: 23/09/2021 06:30
Algunas nubes
Algunas nubes
 Viento del varies
Viento: varies 2 km/h
Temperatura: 20°C
Rocío: 15°C
Humedad: 73%
Barómetro: 1015 hPa
Clouds: Algunas nubes
Visibility: 10 km
Cloud details: Algunas nubes 1036 m
2021/09/23 04:30 LEAL 230430Z VRB01KT 9999 FEW034 20/15 Q1015 NOSIG
 
LELC - San Javier, Murcia, ESPAÑA
Distance from station: SSO 188km
Actualización: 23/09/2021 06:30
Despejado
Despejado
 Viento del N
Viento: N 11 km/h
Temperatura: 20°C
Rocío: 16°C
Humedad: 78%
Barómetro: 1014 hPa
Clouds: Despejado
Visibility: 9 km
2021/09/23 04:30 LELC 230430Z AUTO 36006KT 9000 NCD 20/16 Q1014
LEAB - Los Llanos, Albacete, ESPAÑA
Distance from station: O 143km
Actualización: 23/09/2021 06:30
Parcialmente nuboso
Parcialmente nuboso
 Viento del E
Viento: E 7 km/h
Temperatura: 16°C
Rocío: 14°C
Humedad: 88%
Barómetro: 1019 hPa
Clouds: Parcialmente nuboso
Visibility: 10 km
Cloud details: Parcialmente nuboso 457 m
2021/09/23 04:30 LEAB 230430Z 09004KT 050V120 9999 SCT015 16/14 Q1019 NOSIG